Time;durP1;ratioP1;P1;durP2;ratioP2;P2;SDS_P1;SDS_P2;PMS_P1;PMS_P2;Temp;Humidity;BMP_temperature;BMP_pressure;BME280_temperature;BME280_humidity;BME280_pressure;Samples;Min_cycle;Max_cycle;Signal;HPM_P1;HPM_P2
2022/07/24 00:02:16;;;;;;;9.20;5.07;;;;;;;13.82;70.78;101808.38;5030186;28;20025;-74
2022/07/24 00:04:42;;;;;;;10.32;5.03;;;;;;;13.79;71.11;101808.66;5031150;28;20044;-73
2022/07/24 00:07:07;;;;;;;7.63;5.18;;;;;;;13.79;70.28;101803.22;5030593;28;20034;-74
2022/07/24 00:09:32;;;;;;;8.70;4.95;;;;;;;13.71;70.95;101811.31;5046426;28;20080;-74
2022/07/24 00:11:58;;;;;;;11.35;4.88;;;;;;;13.66;70.88;101813.66;5030178;28;20087;-74
2022/07/24 00:14:24;;;;;;;10.23;4.90;;;;;;;13.59;70.94;101807.13;5030328;28;20028;-74
2022/07/24 00:16:49;;;;;;;16.77;5.53;;;;;;;13.58;71.02;101799.97;5030489;28;20025;-74
2022/07/24 00:19:15;;;;;;;13.48;5.30;;;;;;;13.64;71.30;101793.91;5029756;28;20028;-73
2022/07/24 00:21:40;;;;;;;9.15;5.60;;;;;;;13.55;71.29;101778.50;5030092;28;20034;-74
2022/07/24 00:24:05;;;;;;;12.43;5.57;;;;;;;13.50;71.58;101791.75;5031437;28;20036;-73
2022/07/24 00:26:31;;;;;;;11.60;5.60;;;;;;;13.45;71.48;101783.19;5029987;28;20137;-74
2022/07/24 00:28:56;;;;;;;12.88;4.97;;;;;;;13.28;72.09;101777.56;5030150;28;20032;-74
2022/07/24 00:31:22;;;;;;;10.68;5.90;;;;;;;13.02;74.21;101781.97;5032032;28;20029;-74
2022/07/24 00:33:48;;;;;;;13.88;5.75;;;;;;;13.12;73.53;101782.78;5035589;28;20100;-74
2022/07/24 00:36:14;;;;;;;10.85;6.07;;;;;;;13.12;73.23;101782.78;5050475;28;20028;-74
2022/07/24 00:38:39;;;;;;;12.02;6.40;;;;;;;12.98;73.44;101784.16;5034722;28;20025;-74
2022/07/24 00:41:05;;;;;;;11.88;5.70;;;;;;;13.06;74.17;101777.97;5033568;28;20112;-74
2022/07/24 00:43:30;;;;;;;10.95;5.63;;;;;;;13.15;73.24;101777.03;5049921;28;20056;-74
2022/07/24 00:45:56;;;;;;;10.20;5.95;;;;;;;13.13;73.03;101773.63;5050060;28;20021;-73
2022/07/24 00:48:21;;;;;;;10.77;5.72;;;;;;;13.11;72.51;101775.66;5033336;28;20031;-74
2022/07/24 00:50:47;;;;;;;13.52;6.05;;;;;;;13.13;73.14;101787.22;5035284;28;20026;-74
2022/07/24 00:53:13;;;;;;;11.18;5.95;;;;;;;13.12;72.90;101782.78;5043391;28;20029;-74
2022/07/24 00:55:39;;;;;;;10.90;6.00;;;;;;;13.14;73.05;101786.22;5014728;28;20076;-74
2022/07/24 00:58:05;;;;;;;10.90;5.80;;;;;;;13.12;72.99;101788.22;5013877;28;20087;-74
2022/07/24 01:00:30;;;;;;;11.45;6.32;;;;;;;13.05;73.05;101787.13;5013374;28;20049;-73
2022/07/24 01:02:56;;;;;;;15.77;6.43;;;;;;;13.04;74.31;101801.75;5013373;28;20027;-74
2022/07/24 01:05:22;;;;;;;12.80;5.68;;;;;;;13.02;73.91;101799.16;5013462;28;20032;-74
2022/07/24 01:07:48;;;;;;;12.05;5.50;;;;;;;13.02;74.55;101798.28;5013643;28;20108;-74
2022/07/24 01:10:13;;;;;;;16.35;6.15;;;;;;;12.97;74.34;101795.16;5013324;28;20120;-74
2022/07/24 01:12:39;;;;;;;14.18;5.85;;;;;;;12.95;73.46;101789.88;5014803;28;20024;-74
2022/07/24 01:15:08;;;;;;;9.95;5.47;;;;;;;12.92;73.95;101792.06;5013519;28;20030;-74
2022/07/24 01:17:37;;;;;;;12.45;6.05;;;;;;;12.86;74.53;101787.25;5013603;28;20026;-74
2022/07/24 01:20:05;;;;;;;9.90;5.30;;;;;;;12.76;74.25;101790.84;5014415;28;20029;-74
2022/07/24 01:22:31;;;;;;;14.80;5.88;;;;;;;12.82;74.09;101791.25;5014611;28;20048;-74
2022/07/24 01:24:56;;;;;;;15.18;6.72;;;;;;;12.76;74.94;101793.56;5012519;28;20045;-74
2022/07/24 01:27:23;;;;;;;12.88;6.20;;;;;;;12.83;74.67;101792.97;5014158;28;20034;-74
2022/07/24 01:29:49;;;;;;;9.75;6.20;;;;;;;12.91;74.29;101790.34;5013065;28;20064;-74
2022/07/24 01:32:14;;;;;;;13.00;5.70;;;;;;;12.90;73.64;101788.63;5013449;28;20033;-74
2022/07/24 01:34:40;;;;;;;8.43;6.30;;;;;;;12.87;73.50;101788.94;5013963;28;20424;-74
2022/07/24 01:37:06;;;;;;;21.55;5.63;;;;;;;12.80;73.65;101782.41;5013085;28;20028;-74
2022/07/24 01:39:31;;;;;;;10.57;6.50;;;;;;;12.82;73.65;101769.50;5012224;28;20048;-73
2022/07/24 01:41:56;;;;;;;12.63;6.38;;;;;;;12.77;73.84;101778.94;5013692;28;20081;-74
2022/07/24 01:44:22;;;;;;;17.98;7.60;;;;;;;12.75;74.18;101775.53;5013838;28;20033;-74
2022/07/24 01:46:47;;;;;;;17.55;7.53;;;;;;;12.75;74.16;101780.97;5014206;28;20142;-74
2022/07/24 01:49:13;;;;;;;14.82;7.53;;;;;;;12.17;77.79;101773.03;5012770;28;20026;-74
2022/07/24 01:51:38;;;;;;;15.52;7.35;;;;;;;12.48;76.27;101767.38;5012940;28;20025;-74
2022/07/24 01:54:04;;;;;;;12.88;6.32;;;;;;;12.57;74.88;101777.34;5031275;28;20017;-73
2022/07/24 01:56:31;;;;;;;13.15;7.18;;;;;;;12.61;74.87;101773.31;5032314;28;20021;-73
2022/07/24 01:58:56;;;;;;;12.48;6.88;;;;;;;12.47;74.94;101766.53;5048954;28;20455;-73
2022/07/24 02:01:22;;;;;;;18.63;7.20;;;;;;;12.48;74.63;101772.81;5032917;28;20028;-76
2022/07/24 02:03:48;;;;;;;11.55;6.15;;;;;;;12.52;74.54;101779.66;5030115;28;20026;-72
2022/07/24 02:06:14;;;;;;;9.88;6.50;;;;;;;12.53;74.10;101770.50;5030139;28;20041;-73
2022/07/24 02:08:39;;;;;;;9.05;6.50;;;;;;;12.51;75.06;101777.94;5030121;28;20533;-76
2022/07/24 02:11:05;;;;;;;16.05;6.95;;;;;;;12.49;75.58;101780.81;5034074;28;20053;-73
2022/07/24 02:13:30;;;;;;;15.32;7.38;;;;;;;12.36;76.19;101780.28;5032115;28;20033;-74
2022/07/24 02:15:56;;;;;;;14.30;7.60;;;;;;;12.30;76.45;101782.72;5049180;28;20058;-73
2022/07/24 02:18:22;;;;;;;18.23;7.28;;;;;;;12.39;75.94;101773.72;5033081;28;20025;-72
2022/07/24 02:20:47;;;;;;;15.63;7.32;;;;;;;12.44;76.06;101771.38;5048929;28;20031;-73
2022/07/24 02:23:17;;;;;;;13.63;7.20;;;;;;;12.47;75.63;101765.66;5032055;28;20036;-73
2022/07/24 02:25:46;;;;;;;12.27;7.63;;;;;;;12.40;75.41;101769.97;5032040;28;20045;-75
2022/07/24 02:28:12;;;;;;;11.52;6.80;;;;;;;12.34;75.67;101765.16;5031697;28;20028;-75
2022/07/24 02:30:38;;;;;;;14.85;7.38;;;;;;;12.34;76.06;101767.84;5031806;28;20021;-74
2022/07/24 02:33:03;;;;;;;13.50;7.38;;;;;;;12.41;75.72;101768.97;5048729;28;20021;-75
2022/07/24 02:35:28;;;;;;;15.68;6.95;;;;;;;12.28;75.80;101782.03;5048903;28;20112;-75
2022/07/24 02:37:54;;;;;;;9.98;6.72;;;;;;;12.16;76.14;101774.03;5033231;28;20021;-73
2022/07/24 02:40:19;;;;;;;13.50;6.72;;;;;;;12.19;76.25;101773.75;5031751;28;20036;-75
2022/07/24 02:42:45;;;;;;;13.52;8.30;;;;;;;12.18;76.75;101772.03;5031923;28;20064;-75
2022/07/24 02:45:11;;;;;;;10.70;6.95;;;;;;;12.29;76.31;101784.59;5031642;28;20087;-73
2022/07/24 02:47:47;;;;;;;13.00;7.03;;;;;;;12.34;76.52;101786.88;5032979;28;20029;-73
2022/07/24 02:50:12;;;;;;;15.05;8.50;;;;;;;12.39;76.69;101779.16;5030815;28;20025;-75
2022/07/24 02:52:37;;;;;;;15.70;8.45;;;;;;;12.07;77.87;101791.22;5031171;28;20022;-73
2022/07/24 02:55:03;;;;;;;15.73;7.63;;;;;;;12.14;77.50;101781.47;5031287;28;20105;-75
2022/07/24 02:57:28;;;;;;;10.55;7.05;;;;;;;12.23;76.27;101786.03;5033369;28;20061;-76
2022/07/24 02:59:54;;;;;;;14.32;7.65;;;;;;;12.27;76.10;101791.19;5031048;28;20055;-73
2022/07/24 03:02:19;;;;;;;13.10;7.75;;;;;;;12.29;76.21;101794.59;5031720;28;20037;-73
2022/07/24 03:04:45;;;;;;;10.68;7.43;;;;;;;12.28;75.64;101798.31;5031367;28;20033;-73
2022/07/24 03:07:11;;;;;;;13.63;7.60;;;;;;;12.21;75.30;101793.47;5031351;28;20033;-72
2022/07/24 03:09:37;;;;;;;16.20;7.80;;;;;;;12.16;75.62;101789.47;5031012;28;20033;-73
2022/07/24 03:12:02;;;;;;;13.93;8.25;;;;;;;12.15;75.96;101788.63;5047801;28;20029;-73
2022/07/24 03:14:28;;;;;;;12.43;7.55;;;;;;;12.14;76.47;101776.06;5032202;28;20128;-73
2022/07/24 03:16:53;;;;;;;12.23;7.82;;;;;;;12.19;75.82;101784.63;5031676;28;20503;-73
2022/07/24 03:19:18;;;;;;;13.13;8.73;;;;;;;12.19;76.63;101787.34;5032585;28;20503;-73
2022/07/24 03:21:44;;;;;;;14.90;9.10;;;;;;;12.19;77.46;101784.63;5032996;28;20025;-73
2022/07/24 03:24:09;;;;;;;16.40;8.40;;;;;;;12.20;77.03;101780.06;5031555;28;20148;-76
2022/07/24 03:26:35;;;;;;;11.65;7.60;;;;;;;12.09;76.79;101782.91;5033180;28;20049;-73
2022/07/24 03:29:00;;;;;;;17.25;9.68;;;;;;;11.92;79.51;101781.78;5030831;28;20562;-72
2022/07/24 03:31:25;;;;;;;19.27;9.15;;;;;;;11.63;82.07;101781.78;5031535;28;20071;-73
2022/07/24 03:33:51;;;;;;;12.82;9.63;;;;;;;11.94;80.29;101774.38;5031433;28;20115;-73
2022/07/24 03:36:16;;;;;;;15.73;9.57;;;;;;;11.86;81.06;101776.94;5032875;28;20028;-73
2022/07/24 03:41:11;;;;;;;19.27;9.57;;;;;;;11.93;80.88;101780.78;5008328;28;20313;-76
2022/07/24 03:43:39;;;;;;;13.82;9.93;;;;;;;11.89;81.76;101777.53;5010904;28;20026;-75
2022/07/24 03:46:08;;;;;;;13.07;9.10;;;;;;;11.95;81.25;101773.38;5011131;28;20029;-76
2022/07/24 03:48:33;;;;;;;16.88;9.43;;;;;;;12.06;80.93;101773.22;5006821;28;20035;-76
2022/07/24 03:50:59;;;;;;;18.73;9.88;;;;;;;12.03;80.96;101773.50;4991405;28;20034;-75
2022/07/24 03:53:24;;;;;;;13.55;9.02;;;;;;;12.12;81.62;101774.47;5004454;28;20034;-76
2022/07/24 03:55:50;;;;;;;14.50;10.38;;;;;;;12.22;80.88;101781.59;5011021;28;20105;-76
2022/07/24 03:58:21;;;;;;;15.20;8.98;;;;;;;12.27;80.93;101791.19;5006273;28;20023;-76
2022/07/24 04:00:46;;;;;;;15.52;9.57;;;;;;;12.29;81.17;101783.72;4990625;28;20030;-76
2022/07/24 04:03:12;;;;;;;13.10;8.85;;;;;;;12.26;80.93;101784.00;4991417;28;20026;-76
2022/07/24 04:05:37;;;;;;;16.77;9.52;;;;;;;12.26;80.69;101784.00;4993653;28;20033;-76
2022/07/24 04:08:03;;;;;;;16.88;9.02;;;;;;;12.31;80.74;101771.72;4995617;28;20034;-76
2022/07/24 04:10:29;;;;;;;19.15;9.80;;;;;;;12.39;80.26;101773.72;4998107;28;20034;-75
2022/07/24 04:12:55;;;;;;;16.77;10.07;;;;;;;12.47;80.52;101771.97;4999162;28;20072;-75
2022/07/24 04:15:26;;;;;;;14.02;8.90;;;;;;;12.28;80.97;101776.59;5011657;28;20097;-76
2022/07/24 04:17:51;;;;;;;13.63;8.73;;;;;;;12.19;81.85;101779.19;4995106;28;20121;-76
2022/07/24 04:20:17;;;;;;;14.65;9.70;;;;;;;12.37;81.41;101781.13;4994919;28;20129;-76
2022/07/24 04:22:42;;;;;;;12.50;8.35;;;;;;;12.43;81.23;101775.09;4994827;28;20028;-75
2022/07/24 04:25:08;;;;;;;21.77;9.77;;;;;;;12.45;81.25;101778.53;4994806;28;20026;-75
2022/07/24 04:27:43;;;;;;;19.63;8.45;;;;;;;12.56;80.94;101774.78;4995171;28;20022;-75
2022/07/24 04:30:12;;;;;;;12.23;8.40;;;;;;;12.67;80.45;101778.16;4994263;28;20465;-74
2022/07/24 04:32:38;;;;;;;12.20;7.97;;;;;;;12.58;81.15;101772.75;4994725;28;20034;-76
2022/07/24 04:35:09;;;;;;;14.98;8.32;;;;;;;12.64;81.20;101778.44;4994673;28;20034;-75
2022/07/24 04:37:37;;;;;;;11.25;8.45;;;;;;;12.70;81.33;101772.41;4995074;28;20028;-75
2022/07/24 04:40:03;;;;;;;13.35;8.40;;;;;;;12.80;80.25;101776.97;5001694;28;20479;-75
2022/07/24 04:42:28;;;;;;;18.30;8.27;;;;;;;12.85;80.19;101763.78;5014804;28;20041;-74
2022/07/24 04:44:59;;;;;;;14.65;8.18;;;;;;;12.83;80.50;101760.34;5013986;28;20037;-76
2022/07/24 04:47:24;;;;;;;17.58;8.55;;;;;;;13.01;79.58;101763.97;5012651;28;20030;-77
2022/07/24 04:49:52;;;;;;;13.70;7.78;;;;;;;12.87;80.22;101772.63;5010683;28;20030;-76
2022/07/24 04:52:21;;;;;;;16.67;8.02;;;;;;;12.99;79.93;101768.72;5009041;28;20087;-76
2022/07/24 04:54:52;;;;;;;15.07;7.68;;;;;;;13.14;78.74;101769.88;5004560;28;20014;-76
2022/07/24 04:57:18;;;;;;;17.83;8.13;;;;;;;13.12;79.82;101766.47;5003005;28;20026;-75
2022/07/24 04:59:50;;;;;;;;;;;;;;;13.37;78.44;101775.78;5005098;28;20025;-76
2022/07/24 05:02:18;;;;;;;12.43;7.05;;;;;;;13.37;78.34;101764.91;5005824;28;19913;-75
2022/07/24 05:04:49;;;;;;;12.15;6.75;;;;;;;13.30;78.78;101770.13;5006072;28;20067;-75
2022/07/24 05:07:18;;;;;;;12.45;6.15;;;;;;;13.59;77.46;101769.03;5007792;28;20049;-76
2022/07/24 05:10:04;;;;;;;9.65;5.82;;;;;;;13.62;76.63;101760.53;5002151;28;20019;-75
2022/07/24 05:12:33;;;;;;;14.93;6.35;;;;;;;13.87;76.28;101766.19;4993029;28;20021;-76
2022/07/24 05:15:01;;;;;;;9.10;5.38;;;;;;;13.70;76.38;101768.78;5004250;28;20057;-76
2022/07/24 05:17:26;;;;;;;10.95;6.00;;;;;;;13.91;75.78;101778.50;5003813;28;20018;-76
2022/07/24 05:19:57;;;;;;;5.75;5.00;;;;;;;14.01;75.58;101768.34;5012810;28;20044;-76
2022/07/24 05:22:22;;;;;;;14.38;4.90;;;;;;;14.27;75.15;101762.91;5013751;28;20018;-76
2022/07/24 05:24:51;;;;;;;9.68;4.80;;;;;;;14.10;74.86;101779.16;5013318;28;20041;-75
2022/07/24 05:27:16;;;;;;;8.80;5.15;;;;;;;14.05;75.24;101772.47;5013673;28;20434;-76
2022/07/24 05:29:46;;;;;;;15.10;4.88;;;;;;;14.40;74.33;101783.25;5012832;28;20022;-76
2022/07/24 05:32:11;;;;;;;8.68;4.68;;;;;;;14.40;74.09;101780.53;5013344;28;20052;-76
2022/07/24 05:34:40;;;;;;;14.20;5.55;;;;;;;14.55;73.46;101771.81;5013101;28;20117;-76
2022/07/24 05:37:09;;;;;;;10.00;4.35;;;;;;;14.70;73.37;101775.63;5009869;28;20031;-75
2022/07/24 05:39:36;;;;;;;9.38;4.68;;;;;;;14.92;72.72;101779.63;4992900;28;20053;-76
2022/07/24 05:42:12;;;;;;;11.75;5.35;;;;;;;15.01;72.01;101767.75;4993865;28;20034;-76
2022/07/24 05:45:01;;;;;;;13.27;4.50;;;;;;;14.76;72.95;101768.66;4993380;28;20030;-76
2022/07/24 05:47:27;;;;;;;10.13;4.03;;;;;;;14.99;72.41;101758.84;4995432;28;20022;-76
2022/07/24 05:49:55;;;;;;;8.00;4.13;;;;;;;15.02;71.88;101757.69;5012295;28;20025;-75
2022/07/24 05:52:21;;;;;;;14.93;4.00;;;;;;;15.03;71.39;101753.94;5017582;28;20017;-76
2022/07/24 05:54:47;;;;;;;11.95;4.35;;;;;;;15.06;71.45;101749.00;5010011;28;20034;-76
2022/07/24 05:57:18;;;;;;;10.18;3.78;;;;;;;15.11;71.40;101753.94;4994200;28;20026;-76
2022/07/24 05:59:44;;;;;;;10.15;3.97;;;;;;;15.09;70.93;101753.25;4992505;28;20105;-76
2022/07/24 06:02:22;;;;;;;8.85;4.15;;;;;;;15.19;70.85;101753.97;4993874;28;20124;-75
2022/07/24 06:04:53;;;;;;;8.10;3.70;;;;;;;15.34;69.88;101760.50;4993383;28;20019;-76
2022/07/24 06:07:18;;;;;;;11.05;3.58;;;;;;;15.44;69.72;101752.97;4993543;28;20022;-76
2022/07/24 06:09:51;;;;;;;7.80;3.35;;;;;;;15.64;69.34;101758.16;5018751;28;20030;-76
2022/07/24 06:12:23;;;;;;;7.32;3.03;;;;;;;15.89;68.17;101757.13;5001558;28;20101;-76
2022/07/24 06:14:54;;;;;;;12.25;3.67;;;;;;;15.84;68.34;101748.59;5004525;28;20519;-76
2022/07/24 06:17:22;;;;;;;;;;;;;;;16.01;67.81;101766.69;5001506;28;20068;-76
2022/07/24 06:19:53;;;;;;;3.72;2.38;;;;;;;16.24;67.43;101757.78;5000186;28;19913;-76
2022/07/24 06:22:19;;;;;;;13.15;3.15;;;;;;;16.46;66.60;101754.31;4998736;28;20023;-76
2022/07/24 06:24:51;;;;;;;5.82;2.33;;;;;;;16.51;66.44;101751.06;5002393;28;20026;-75
2022/07/24 06:27:21;;;;;;;9.55;2.60;;;;;;;16.66;65.89;101737.50;4997635;28;20032;-75
2022/07/24 06:29:54;;;;;;;7.57;2.53;;;;;;;16.93;65.60;101756.22;4991617;28;20059;-76
2022/07/24 06:32:23;;;;;;;8.25;2.50;;;;;;;16.83;65.07;101743.78;4992843;28;20118;-76
2022/07/24 06:34:52;;;;;;;4.47;2.47;;;;;;;16.87;65.51;101751.44;5001459;28;20026;-76
2022/07/24 06:37:20;;;;;;;8.43;3.00;;;;;;;16.97;65.09;101741.16;5012369;28;20017;-75
2022/07/24 06:39:45;;;;;;;7.57;2.33;;;;;;;16.93;65.24;101750.72;5012071;28;20393;-75
2022/07/24 06:42:20;;;;;;;6.65;2.85;;;;;;;16.90;65.31;101745.63;5012810;28;20036;-75
2022/07/24 06:44:49;;;;;;;5.68;2.30;;;;;;;16.99;64.89;101744.56;5010337;28;20038;-68
2022/07/24 06:47:17;;;;;;;3.42;2.22;;;;;;;17.08;64.83;101721.59;5009462;28;20116;-69
2022/07/24 06:49:45;;;;;;;5.78;2.20;;;;;;;16.98;65.29;101731.91;5009831;28;20060;-69
2022/07/24 06:52:10;;;;;;;6.82;2.55;;;;;;;17.16;65.40;101733.53;5022303;28;20568;-69
2022/07/24 06:54:37;;;;;;;4.70;2.35;;;;;;;17.17;65.07;101724.28;5014040;28;20025;-69
2022/07/24 06:57:02;;;;;;;8.35;2.33;;;;;;;17.27;65.06;101723.00;5011976;28;20021;-69
2022/07/24 06:59:28;;;;;;;6.60;2.28;;;;;;;17.15;65.46;101720.84;5012866;28;20056;-70
2022/07/24 07:01:54;;;;;;;8.07;2.10;;;;;;;17.40;65.06;101711.44;5012966;28;20097;-69
2022/07/24 07:04:19;;;;;;;7.80;2.60;;;;;;;17.63;63.72;101723.25;5013647;28;20021;-69
2022/07/24 07:06:47;;;;;;;7.70;2.38;;;;;;;17.44;64.79;101715.53;5014925;28;20033;-69
2022/07/24 07:09:12;;;;;;;8.48;2.30;;;;;;;17.86;64.21;101714.16;5015449;28;20030;-69
2022/07/24 07:11:38;;;;;;;8.13;2.63;;;;;;;18.03;63.69;101715.72;5012212;28;20031;-70
2022/07/24 07:14:03;;;;;;;8.13;2.50;;;;;;;18.22;63.21;101708.00;5002320;28;20029;-69
2022/07/24 07:16:29;;;;;;;7.95;2.20;;;;;;;18.05;63.32;101719.13;5006045;28;20033;-69
2022/07/24 07:18:55;;;;;;;5.45;2.30;;;;;;;18.37;62.12;101728.03;5004241;28;20486;-69
2022/07/24 07:21:20;;;;;;;5.30;2.15;;;;;;;18.22;62.79;101725.28;5002088;28;20014;-69
2022/07/24 07:23:48;;;;;;;6.55;2.05;;;;;;;18.57;61.87;101726.41;5012667;28;20036;-68
2022/07/24 07:26:14;;;;;;;5.18;1.95;;;;;;;18.44;61.91;101723.50;5018481;28;20033;-69
2022/07/24 07:28:43;;;;;;;11.18;2.55;;;;;;;18.69;61.86;101722.19;5010971;28;20022;-69
2022/07/24 07:31:09;;;;;;;6.13;2.00;;;;;;;18.68;61.43;101725.97;5015986;28;20032;-69
2022/07/24 07:33:34;;;;;;;7.68;2.30;;;;;;;18.78;61.36;101716.59;5016269;28;20060;-69
2022/07/24 07:36:03;;;;;;;7.70;2.17;;;;;;;18.66;61.99;101722.59;5016988;28;20033;-69
2022/07/24 07:38:29;;;;;;;5.68;1.90;;;;;;;19.04;60.67;101725.19;5010427;28;20022;-69
2022/07/24 07:40:54;;;;;;;5.22;1.90;;;;;;;19.40;59.99;101724.28;5025069;28;20048;-68
2022/07/24 07:43:20;;;;;;;4.13;2.00;;;;;;;19.63;59.42;101719.50;5020879;28;20025;-69
2022/07/24 07:45:49;;;;;;;6.38;1.83;;;;;;;20.21;57.40;101720.16;5020940;28;20038;-69
2022/07/24 07:48:16;;;;;;;4.90;2.13;;;;;;;20.06;57.10;101724.91;5016186;28;20034;-69
2022/07/24 07:50:41;;;;;;;8.68;2.30;;;;;;;20.19;57.49;101725.00;5015467;28;20033;-69
2022/07/24 07:53:08;;;;;;;5.43;1.83;;;;;;;19.93;58.51;101725.66;5005989;28;20034;-68
2022/07/24 07:55:34;;;;;;;5.13;1.70;;;;;;;20.52;57.12;101727.13;5010115;28;20088;-69
2022/07/24 07:58:00;;;;;;;4.35;1.90;;;;;;;20.63;56.23;101720.22;5020907;28;20025;-69
2022/07/24 08:00:34;;;;;;;5.43;2.05;;;;;;;20.65;56.12;101724.44;5021608;28;20149;-69
2022/07/24 08:03:00;;;;;;;9.60;2.35;;;;;;;20.77;55.80;101717.31;5032781;28;20100;-69
2022/07/24 08:05:29;;;;;;;4.72;2.00;;;;;;;21.00;55.29;101716.16;5019079;28;20029;-70
2022/07/24 08:07:55;;;;;;;3.72;1.80;;;;;;;21.01;55.56;101712.34;5013084;28;20056;-69
2022/07/24 08:10:21;;;;;;;8.85;1.88;;;;;;;21.07;55.54;101706.00;5005981;28;20026;-69
2022/07/24 08:12:46;;;;;;;3.83;1.88;;;;;;;21.39;54.23;101705.25;5014738;28;20022;-69
2022/07/24 08:15:12;;;;;;;3.97;1.70;;;;;;;21.29;55.37;101710.31;5010786;28;20029;-69
2022/07/24 08:17:38;;;;;;;13.70;2.40;;;;;;;21.29;54.55;101707.56;5023880;28;20021;-69
2022/07/24 08:20:05;;;;;;;4.10;1.92;;;;;;;21.25;54.28;101697.97;5015748;28;20040;-69
2022/07/24 08:22:35;;;;;;;3.05;2.10;;;;;;;21.17;54.86;101700.09;4998939;28;20026;-69
2022/07/24 08:25:01;;;;;;;7.25;1.80;;;;;;;21.77;53.38;101696.38;5015825;28;20021;-69
2022/07/24 08:27:29;;;;;;;8.82;2.28;;;;;;;21.92;52.91;101699.78;5009178;28;20029;-68
2022/07/24 08:29:55;;;;;;;6.43;2.10;;;;;;;21.68;53.50;101703.16;5010736;28;20026;-69
2022/07/24 08:32:21;;;;;;;5.25;1.48;;;;;;;21.83;53.69;101711.22;5019033;28;20112;-69
2022/07/24 08:34:49;;;;;;;5.45;1.90;;;;;;;22.08;52.89;101703.13;5025276;28;20037;-69
2022/07/24 08:37:23;;;;;;;3.60;1.95;;;;;;;21.97;53.00;101701.03;5017132;28;20025;-69
2022/07/24 08:43:58;;;;;;;3.38;2.20;;;;;;;22.77;50.98;101697.03;5880939;23;20046;-72
2022/07/24 08:46:26;;;;;;;4.65;1.85;;;;;;;22.30;51.60;101701.88;4976940;28;20085;-72
2022/07/24 08:48:51;;;;;;;5.65;1.90;;;;;;;22.91;50.71;101692.34;4978279;28;20030;-72
2022/07/24 08:51:44;;;;;;;10.77;2.47;;;;;;;22.34;51.34;101692.09;4976913;28;20049;-79
2022/07/24 08:54:17;;;;;;;7.05;1.92;;;;;;;22.63;51.30;101696.25;4968022;28;20039;-78
2022/07/24 08:56:52;;;;;;;4.53;1.90;;;;;;;22.93;50.24;101685.53;4968808;28;20037;-78
2022/07/24 08:59:22;;;;;;;6.50;2.30;;;;;;;22.98;50.08;101688.47;4970564;28;20018;-78
2022/07/24 09:01:56;;;;;;;5.93;1.92;;;;;;;23.57;48.82;101680.84;4971719;28;20018;-79
2022/07/24 09:04:47;;;;;;;5.93;2.00;;;;;;;23.14;50.00;101678.81;4974427;28;20027;-78
2022/07/24 09:07:37;;;;;;;5.28;2.15;;;;;;;23.54;49.52;101681.31;4961485;28;20031;-79
2022/07/24 09:10:27;;;;;;;;;;;;;;;;;;;;;
2022/07/24 09:16:43;;;;;;;5.50;2.08;;;;;;;23.80;47.10;101674.75;4973115;28;20023;-78
2022/07/24 09:19:21;;;;;;;4.03;1.95;;;;;;;24.07;47.85;101669.81;4959731;28;20028;-78
2022/07/24 09:21:52;;;;;;;5.97;2.00;;;;;;;24.25;47.20;101678.09;4976369;28;20023;-79
2022/07/24 09:24:50;;;;;;;9.63;2.40;;;;;;;24.10;46.78;101670.19;4957925;28;20041;-78
2022/07/24 09:27:25;;;;;;;4.53;2.28;;;;;;;24.29;46.03;101667.44;4964356;28;20031;-78
2022/07/24 09:29:57;;;;;;;5.82;2.38;;;;;;;24.76;45.14;101673.28;4970169;28;20510;-77
2022/07/24 09:35:45;;;;;;;3.67;1.63;;;;;;;24.73;45.74;101679.31;4955858;28;20028;-77
2022/07/24 09:38:41;;;;;;;5.30;2.33;;;;;;;24.86;45.00;101666.13;4980635;28;20490;-77
2022/07/24 09:41:29;;;;;;;6.70;2.10;;;;;;;24.75;44.68;101660.53;4981749;28;20019;-78
2022/07/24 09:44:23;;;;;;;4.72;2.28;;;;;;;24.54;45.07;101671.00;4964809;28;20061;-77
2022/07/24 09:47:02;;;;;;;8.27;2.50;;;;;;;24.47;45.16;101664.72;4963521;28;20046;-78
2022/07/24 09:49:33;;;;;;;6.90;2.50;;;;;;;24.61;44.94;101666.22;4988271;28;20015;-78
2022/07/24 09:52:17;;;;;;;6.00;3.10;;;;;;;24.47;44.94;101670.25;4978245;28;20034;-77
2022/07/24 09:54:48;;;;;;;;;;;;;;;24.86;44.77;101668.06;4969945;28;20022;-77
2022/07/24 09:57:38;;;;;;;;;;;;;;;;;;;;;
2022/07/24 10:00:14;;;;;;;3.63;2.40;;;;;;;24.86;44.45;101659.75;4957434;28;20114;-78
2022/07/24 10:03:03;;;;;;;3.92;2.33;;;;;;;25.06;43.35;101649.25;4955311;28;20027;-78
2022/07/24 10:05:38;;;;;;;7.20;2.40;;;;;;;25.32;42.88;101638.84;4969933;28;20127;-78
2022/07/24 10:08:27;;;;;;;5.28;2.60;;;;;;;25.70;42.46;101652.28;4981762;28;20080;-77
2022/07/24 10:11:31;;;;;;;3.75;2.78;;;;;;;25.56;42.20;101640.59;4972638;28;20035;-78
2022/07/24 10:18:16;;;;;;;7.15;2.65;;;;;;;24.71;44.23;101648.22;5011026;23;20061;-75
2022/07/24 10:21:05;;;;;;;11.43;3.03;;;;;;;25.11;43.32;101643.00;5002489;28;20034;-76
2022/07/24 10:23:58;;;;;;;5.63;2.63;;;;;;;25.64;42.66;101637.44;5002583;28;20034;-75
2022/07/24 10:26:40;;;;;;;2.40;2.05;;;;;;;25.95;41.51;101632.63;4986873;28;20029;-76
2022/07/24 10:29:13;;;;;;;;;;;;;;;25.78;41.95;101631.69;5002101;28;20030;-76
2022/07/24 10:31:44;;;;;;;5.93;2.75;;;;;;;26.02;40.95;101629.75;4984874;28;19909;-76
2022/07/24 10:34:23;;;;;;;6.50;2.65;;;;;;;26.60;40.89;101623.25;4980298;28;20026;-77
2022/07/24 10:37:04;;;;;;;6.65;3.22;;;;;;;26.97;39.18;101607.03;4979325;28;20018;-76
2022/07/24 10:40:12;;;;;;;9.15;2.60;;;;;;;27.25;39.21;101603.38;4984401;28;20112;-76
2022/07/24 10:43:19;;;;;;;11.52;3.13;;;;;;;26.73;39.77;101590.50;4977341;28;20413;-76
2022/07/24 10:46:13;;;;;;;5.25;2.97;;;;;;;26.69;39.92;101605.97;4977176;28;20030;-76
2022/07/24 10:48:50;;;;;;;6.80;3.38;;;;;;;27.09;39.24;101610.63;4987184;28;20022;-76
2022/07/24 10:51:24;;;;;;;4.88;2.78;;;;;;;27.24;38.20;101608.09;4976536;28;20018;-76
2022/07/24 10:53:53;;;;;;;8.93;3.15;;;;;;;27.17;38.21;101599.09;4979287;28;20053;-76
2022/07/24 10:56:41;;;;;;;5.75;3.33;;;;;;;27.35;38.76;101608.28;4987373;28;20019;-76
2022/07/24 10:59:43;;;;;;;;;;;;;;;;;;;;;
2022/07/24 11:02:39;;;;;;;6.70;3.50;;;;;;;27.85;37.34;101609.16;4982470;28;20037;-74
2022/07/24 11:05:31;;;;;;;10.82;4.10;;;;;;;27.88;37.34;101595.81;4987496;28;20018;-76
2022/07/24 11:08:15;;;;;;;5.55;3.17;;;;;;;27.40;38.31;101598.09;4980790;28;20113;-77
2022/07/24 11:10:44;;;;;;;7.82;3.30;;;;;;;27.98;37.34;101595.97;5000019;28;20044;-77
2022/07/24 11:13:46;;;;;;;;;;;;;;;;;;;;;
2022/07/24 11:16:27;;;;;;;18.55;4.18;;;;;;;27.35;37.72;101586.03;4982986;28;20022;-77
2022/07/24 11:19:02;;;;;;;6.25;3.70;;;;;;;27.62;37.72;101575.91;4999975;28;20081;-77
2022/07/24 11:21:54;;;;;;;6.72;4.00;;;;;;;28.34;36.71;101581.44;4982284;28;20022;-76
2022/07/24 11:24:30;;;;;;;8.98;3.95;;;;;;;28.65;36.00;101576.22;4983959;28;20045;-77
2022/07/24 11:27:14;;;;;;;8.90;4.55;;;;;;;28.68;35.90;101561.75;4982154;28;20022;-78
2022/07/24 11:30:04;;;;;;;5.40;3.67;;;;;;;29.27;35.08;101558.97;4988993;28;20026;-76
2022/07/24 11:33:04;;;;;;;6.78;4.03;;;;;;;28.54;35.79;101571.63;4979213;28;20030;-76
2022/07/24 11:35:48;;;;;;;7.75;4.78;;;;;;;27.85;36.86;101556.25;4975880;28;20524;-76
2022/07/24 11:38:31;;;;;;;6.50;4.13;;;;;;;28.45;36.27;101562.06;4985722;28;20077;-76
2022/07/24 11:41:37;;;;;;;6.88;3.88;;;;;;;28.96;36.28;101545.91;4981684;28;20022;-75
2022/07/24 11:44:18;;;;;;;6.40;4.45;;;;;;;28.41;36.52;101549.75;4997649;28;20077;-77
2022/07/24 11:47:08;;;;;;;7.78;3.92;;;;;;;28.08;36.98;101545.97;4987272;28;20069;-77
2022/07/24 11:49:52;;;;;;;11.95;4.53;;;;;;;27.95;36.79;101552.75;4997212;28;20109;-77
2022/07/24 11:52:30;;;;;;;5.72;4.00;;;;;;;28.71;36.40;101526.94;4977853;28;20027;-77
2022/07/24 11:56:13;;;;;;;11.40;4.70;;;;;;;28.95;35.82;101510.75;4985369;28;20034;-78
2022/07/24 11:58:48;;;;;;;6.70;4.05;;;;;;;28.96;35.89;101512.44;4968804;28;20177;-77
2022/07/24 12:01:26;;;;;;;7.85;4.20;;;;;;;28.65;36.35;101512.13;4987235;28;20058;-78
2022/07/24 12:04:23;;;;;;;9.05;4.40;;;;;;;29.74;34.32;101513.59;4983145;28;20065;-77